Kiev, Ukraine
Current Conditions -  °F | °C
As of 1:30 AM on Saturday 20 Dec 2014 (Local Time) from UKKK Reporting Station
Drizzle Drizzle  
Wind Chill: 35°   Ceiling: 300
Heat Index: 41°   Visibility: 4mi
Dew Point: 41°   Wind: 9mph
Humidity: 100%   Direction: 240°WSW
Pressure: 29.77"   Gusts: NA
Location:  50.43°N, 30.52°E
Report Text: UKKK 192230Z 24004MPS 6000 -DZ OVC003 05/05 Q1008 26290257 NOSIG
Loading
Personal Weather Stations






























Interactive Weather Map New forecast layout! Learn more

10-Day Weather Forecast

Advertisements
Track Severe Weather on mobile